createdAt,value
2017-08-06T00:08:21.000Z,22.31
2017-08-06T00:18:20.000Z,22.29
2017-08-06T00:28:20.000Z,22.27
2017-08-06T00:38:20.000Z,22.23
2017-08-06T00:48:20.000Z,22.22
2017-08-06T00:58:20.000Z,22.18
2017-08-06T01:08:20.000Z,22.14
2017-08-06T01:18:20.000Z,22.08
2017-08-06T01:28:20.000Z,22.06
2017-08-06T01:38:20.000Z,22.01
2017-08-06T01:48:20.000Z,21.99
2017-08-06T01:58:20.000Z,21.93
2017-08-06T02:08:20.000Z,21.9
2017-08-06T02:18:20.000Z,21.88
2017-08-06T02:28:20.000Z,21.83
2017-08-06T02:38:20.000Z,21.8
2017-08-06T02:48:20.000Z,21.77
2017-08-06T02:58:20.000Z,21.75
2017-08-06T03:08:20.000Z,21.7
2017-08-06T03:18:20.000Z,21.67
2017-08-06T03:28:20.000Z,21.65
2017-08-06T03:38:20.000Z,21.64
2017-08-06T03:48:20.000Z,21.6
2017-08-06T03:58:20.000Z,21.58
2017-08-06T04:08:21.000Z,21.53
2017-08-06T04:18:20.000Z,21.46
2017-08-06T04:28:20.000Z,21.48
2017-08-06T04:38:20.000Z,21.44
2017-08-06T04:48:20.000Z,21.44
2017-08-06T04:58:20.000Z,21.49
2017-08-06T05:08:20.000Z,21.44
2017-08-06T05:18:20.000Z,21.45
2017-08-06T05:28:20.000Z,21.52
2017-08-06T05:38:20.000Z,21.32
2017-08-06T05:48:20.000Z,21.52
2017-08-06T05:58:20.000Z,21.56
2017-08-06T06:08:20.000Z,21.6
2017-08-06T06:18:20.000Z,21.64
2017-08-06T06:28:20.000Z,21.64
2017-08-06T06:38:20.000Z,21.71
2017-08-06T06:48:20.000Z,21.58
2017-08-06T06:58:20.000Z,21.55
2017-08-06T07:08:20.000Z,21.35
2017-08-06T07:18:21.000Z,21.59
2017-08-06T07:28:20.000Z,21.58
2017-08-06T07:38:20.000Z,21.67
2017-08-06T07:48:20.000Z,21.6
2017-08-06T07:58:20.000Z,21.75
2017-08-06T08:08:21.000Z,21.78
2017-08-06T08:18:21.000Z,21.97
2017-08-06T08:28:21.000Z,22.18
2017-08-06T08:38:21.000Z,22.41
2017-08-06T08:48:21.000Z,22.38
2017-08-06T08:58:21.000Z,22.48
2017-08-06T09:08:21.000Z,22.56
2017-08-06T09:18:21.000Z,22.62
2017-08-06T09:28:21.000Z,22.67
2017-08-06T09:38:21.000Z,22.86
2017-08-06T09:48:21.000Z,23
2017-08-06T09:58:21.000Z,23.06
2017-08-06T10:18:21.000Z,23.49
2017-08-06T10:28:21.000Z,23.36
2017-08-06T10:38:21.000Z,23.32
2017-08-06T10:48:21.000Z,23.3
2017-08-06T10:58:21.000Z,23.53
2017-08-06T11:08:21.000Z,23.64
2017-08-06T11:18:21.000Z,23.7
2017-08-06T11:28:21.000Z,23.76
2017-08-06T11:38:21.000Z,23.84
2017-08-06T11:48:21.000Z,23.72
2017-08-06T11:58:21.000Z,23.73
2017-08-06T12:08:21.000Z,23.99
2017-08-06T12:18:21.000Z,23.93
2017-08-06T12:28:21.000Z,24.11
2017-08-06T12:38:21.000Z,24.17
2017-08-06T12:48:21.000Z,24.07
2017-08-06T12:58:21.000Z,24.05
2017-08-06T13:08:21.000Z,23.97
2017-08-06T13:18:21.000Z,23.98
2017-08-06T13:28:21.000Z,24.11
2017-08-06T13:38:21.000Z,24.02
2017-08-06T13:48:21.000Z,24.01
2017-08-06T13:58:21.000Z,24.05
2017-08-06T14:08:21.000Z,24.04
2017-08-06T14:18:21.000Z,24.02
2017-08-06T14:28:21.000Z,24.01
2017-08-06T14:38:21.000Z,24.06
2017-08-06T14:48:21.000Z,23.98
2017-08-06T14:58:21.000Z,23.99
2017-08-06T15:08:21.000Z,23.93
2017-08-06T15:18:21.000Z,23.98
2017-08-06T15:28:21.000Z,23.95
2017-08-06T15:38:21.000Z,24
2017-08-06T15:48:21.000Z,23.98
2017-08-06T15:58:21.000Z,23.97
2017-08-06T16:08:21.000Z,23.87
2017-08-06T16:18:21.000Z,23.86
2017-08-06T16:28:26.000Z,23.86
2017-08-06T16:38:24.000Z,23.72
2017-08-06T16:48:22.000Z,23.91
2017-08-06T16:58:22.000Z,23.84
2017-08-06T17:08:22.000Z,23.95
2017-08-06T17:18:22.000Z,23.92
2017-08-06T17:28:22.000Z,23.96
2017-08-06T17:38:22.000Z,23.85
2017-08-06T17:48:22.000Z,23.87
2017-08-06T17:58:22.000Z,23.86
2017-08-06T18:08:22.000Z,23.86
2017-08-06T18:18:22.000Z,23.93
2017-08-06T18:28:22.000Z,23.84
2017-08-06T18:38:22.000Z,23.79
2017-08-06T18:48:24.000Z,23.72
2017-08-06T18:58:22.000Z,23.67
2017-08-06T19:08:22.000Z,23.66
2017-08-06T19:18:22.000Z,23.61
2017-08-06T19:28:22.000Z,23.55
2017-08-06T19:38:22.000Z,23.51
2017-08-06T19:48:22.000Z,23.47
2017-08-06T19:58:22.000Z,23.42
2017-08-06T20:08:22.000Z,23.42
2017-08-06T20:28:22.000Z,23.43
2017-08-06T20:38:22.000Z,23.42
2017-08-06T20:48:22.000Z,23.27
2017-08-06T20:58:22.000Z,23.2
2017-08-06T21:08:22.000Z,23.23
2017-08-06T21:18:22.000Z,23.2
2017-08-06T21:28:22.000Z,23.14
2017-08-06T21:38:22.000Z,23.14
2017-08-06T21:48:22.000Z,23.08
2017-08-06T21:58:22.000Z,22.92
2017-08-06T22:08:22.000Z,23.08
2017-08-06T22:18:22.000Z,23.03
2017-08-06T22:38:22.000Z,22.92
2017-08-06T22:48:22.000Z,22.88
2017-08-06T22:58:22.000Z,22.85
2017-08-06T23:08:22.000Z,22.79
2017-08-06T23:18:22.000Z,22.71
2017-08-06T23:28:22.000Z,22.71
2017-08-06T23:38:22.000Z,22.64
2017-08-06T23:48:22.000Z,22.63
2017-08-06T23:58:22.000Z,22.57
